Time;durP1;ratioP1;P1;durP2;ratioP2;P2;SDS_P1;SDS_P2;PMS_P1;PMS_P2;Temp;Humidity;BMP_temperature;BMP_pressure;BME280_temperature;BME280_humidity;BME280_pressure;Samples;Min_cycle;Max_cycle;Signal;HPM_P1;HPM_P2
2023/05/27 00:00:42;;;;;;;13.77;9.80;;;;;;;;;;10137823;28;20042;-72
2023/05/27 00:05:38;;;;;;;17.63;8.77;;;;;;;;;;10147854;28;20519;-72
2023/05/27 00:10:34;;;;;;;18.63;9.00;;;;;;;;;;10136211;28;20083;-72
2023/05/27 00:15:31;;;;;;;17.10;8.93;;;;;;;;;;10138919;28;20050;-72
2023/05/27 00:20:29;;;;;;;12.77;8.70;;;;;;;;;;10147026;28;20367;-72
2023/05/27 00:25:26;;;;;;;13.00;7.90;;;;;;;;;;10152144;28;20482;-73
2023/05/27 00:30:22;;;;;;;18.27;8.63;;;;;;;;;;10149991;28;20476;-72
2023/05/27 00:35:19;;;;;;;19.40;9.32;;;;;;;;;;10145757;28;20047;-72
2023/05/27 00:40:18;;;;;;;23.30;9.05;;;;;;;;;;10134994;28;20413;-72
2023/05/27 00:45:14;;;;;;;20.45;9.27;;;;;;;;;;10148271;28;20270;-72
2023/05/27 00:50:11;;;;;;;15.90;9.38;;;;;;;;;;10144675;28;20042;-72
2023/05/27 00:55:08;;;;;;;16.55;8.40;;;;;;;;;;10140052;28;20410;-72
2023/05/27 01:00:09;;;;;;;22.55;9.65;;;;;;;;;;10147870;28;20488;-72
2023/05/27 01:05:07;;;;;;;18.03;8.83;;;;;;;;;;10145939;28;20046;-72
2023/05/27 01:10:07;;;;;;;16.08;9.13;;;;;;;;;;10145262;28;20100;-71
2023/05/27 01:15:05;;;;;;;15.63;8.88;;;;;;;;;;10137075;28;20046;-72
2023/05/27 01:20:02;;;;;;;24.58;9.45;;;;;;;;;;10148827;28;20748;-71
2023/05/27 01:24:58;;;;;;;19.85;9.88;;;;;;;;;;10146992;28;20574;-72
2023/05/27 01:29:56;;;;;;;22.65;9.18;;;;;;;;;;10115843;28;20058;-72
2023/05/27 01:35:11;;;;;;;25.08;10.82;;;;;;;;;;10140537;28;20125;-72
2023/05/27 01:40:08;;;;;;;21.27;9.75;;;;;;;;;;10144728;28;20051;-72
2023/05/27 01:45:05;;;;;;;19.23;10.48;;;;;;;;;;10145520;28;20591;-72
2023/05/27 01:50:01;;;;;;;21.35;9.48;;;;;;;;;;10147690;28;20053;-73
2023/05/27 01:54:57;;;;;;;18.88;9.52;;;;;;;;;;10148142;28;20498;-72
2023/05/27 01:59:54;;;;;;;24.92;9.70;;;;;;;;;;10148623;28;20050;-72
2023/05/27 02:04:50;;;;;;;18.00;9.23;;;;;;;;;;10138657;28;20785;-72
2023/05/27 02:09:46;;;;;;;16.73;8.80;;;;;;;;;;10143904;28;20505;-72
2023/05/27 02:14:44;;;;;;;15.25;8.70;;;;;;;;;;10144729;28;20389;-73
2023/05/27 02:19:41;;;;;;;17.17;10.50;;;;;;;;;;10141952;28;20046;-72
2023/05/27 02:24:37;;;;;;;26.63;11.07;;;;;;;;;;10141382;28;20047;-72
2023/05/27 02:29:34;;;;;;;23.70;10.52;;;;;;;;;;10146219;28;20125;-72
2023/05/27 02:34:30;;;;;;;19.80;11.23;;;;;;;;;;10137144;28;20116;-73
2023/05/27 02:39:26;;;;;;;17.15;9.88;;;;;;;;;;10140184;28;20062;-72
2023/05/27 02:44:23;;;;;;;16.83;10.07;;;;;;;;;;10138675;28;20413;-73
2023/05/27 02:49:19;;;;;;;14.35;10.48;;;;;;;;;;10147279;28;20050;-72
2023/05/27 02:54:15;;;;;;;15.15;9.52;;;;;;;;;;10140469;28;20042;-73
2023/05/27 02:59:12;;;;;;;17.00;8.57;;;;;;;;;;10149156;28;20042;-73
2023/05/27 03:04:08;;;;;;;11.98;8.85;;;;;;;;;;10139129;28;20500;-72
2023/05/27 03:09:04;;;;;;;19.05;9.43;;;;;;;;;;10146221;28;20116;-73
2023/05/27 03:14:01;;;;;;;16.55;10.45;;;;;;;;;;10143637;28;20108;-73
2023/05/27 03:18:57;;;;;;;23.10;9.93;;;;;;;;;;10139052;28;20038;-72
2023/05/27 03:23:53;;;;;;;17.63;9.27;;;;;;;;;;10144966;28;20686;-72
2023/05/27 03:28:49;;;;;;;16.90;9.63;;;;;;;;;;10146941;28;20049;-73
2023/05/27 03:33:46;;;;;;;17.48;9.20;;;;;;;;;;10144668;28;20060;-72
2023/05/27 03:38:42;;;;;;;25.00;10.45;;;;;;;;;;10146829;28;20089;-73
2023/05/27 03:43:38;;;;;;;15.00;9.02;;;;;;;;;;10122443;28;20042;-73
2023/05/27 03:48:35;;;;;;;19.67;10.45;;;;;;;;;;10135745;28;20393;-73
2023/05/27 03:53:31;;;;;;;22.15;9.23;;;;;;;;;;10141928;28;20073;-73
2023/05/27 03:58:27;;;;;;;15.50;9.88;;;;;;;;;;10144900;28;20050;-72
2023/05/27 04:03:25;;;;;;;23.27;11.05;;;;;;;;;;10158630;28;20053;-73
2023/05/27 04:08:25;;;;;;;18.45;10.23;;;;;;;;;;10148822;28;20080;-73
2023/05/27 04:13:22;;;;;;;15.75;10.25;;;;;;;;;;10151270;28;20046;-72
2023/05/27 04:18:18;;;;;;;17.50;10.25;;;;;;;;;;10153524;28;20073;-72
2023/05/27 04:23:14;;;;;;;15.10;10.13;;;;;;;;;;10157966;28;20066;-73
2023/05/27 04:28:11;;;;;;;17.77;10.60;;;;;;;;;;10149040;28;20050;-72
2023/05/27 04:33:07;;;;;;;18.63;10.68;;;;;;;;;;10151058;28;20493;-73
2023/05/27 04:38:04;;;;;;;22.30;10.40;;;;;;;;;;10151232;28;20057;-73
2023/05/27 04:43:00;;;;;;;18.80;10.57;;;;;;;;;;10150790;28;20055;-73
2023/05/27 04:47:57;;;;;;;14.80;9.23;;;;;;;;;;10148682;28;20093;-73
2023/05/27 04:52:54;;;;;;;19.38;10.27;;;;;;;;;;10148642;28;20045;-73
2023/05/27 04:57:50;;;;;;;23.73;10.23;;;;;;;;;;10153567;28;20048;-73
2023/05/27 05:02:47;;;;;;;15.80;11.18;;;;;;;;;;10152580;28;20042;-72
2023/05/27 05:07:44;;;;;;;22.50;10.95;;;;;;;;;;10144364;28;20077;-73
2023/05/27 05:12:41;;;;;;;23.23;10.75;;;;;;;;;;10140041;28;20057;-73
2023/05/27 05:17:37;;;;;;;13.98;10.15;;;;;;;;;;10149560;28;20520;-73
2023/05/27 05:22:33;;;;;;;17.17;9.82;;;;;;;;;;10153103;28;20042;-73
2023/05/27 05:27:30;;;;;;;19.80;11.02;;;;;;;;;;10140735;28;20093;-74
2023/05/27 05:32:26;;;;;;;18.33;10.68;;;;;;;;;;10140344;28;20074;-73
2023/05/27 05:37:23;;;;;;;19.77;10.57;;;;;;;;;;10142579;28;20043;-73
2023/05/27 05:42:20;;;;;;;15.38;11.65;;;;;;;;;;10138833;28;20448;-73
2023/05/27 05:47:16;;;;;;;18.33;10.65;;;;;;;;;;10147834;28;20113;-73
2023/05/27 05:52:12;;;;;;;16.67;10.40;;;;;;;;;;10135898;28;20165;-73
2023/05/27 05:57:08;;;;;;;20.55;11.48;;;;;;;;;;10146315;28;20520;-73
2023/05/27 06:02:05;;;;;;;17.60;11.85;;;;;;;;;;10135496;28;20043;-73
2023/05/27 06:07:01;;;;;;;16.52;11.70;;;;;;;;;;10149297;28;20903;-73
2023/05/27 06:11:58;;;;;;;18.08;10.77;;;;;;;;;;10144795;28;20451;-73
2023/05/27 06:16:54;;;;;;;16.42;10.60;;;;;;;;;;10148601;28;20436;-73
2023/05/27 06:21:51;;;;;;;16.55;10.60;;;;;;;;;;10142774;28;20093;-73
2023/05/27 06:26:49;;;;;;;18.63;11.20;;;;;;;;;;10147308;28;20065;-73
2023/05/27 06:31:48;;;;;;;17.10;10.73;;;;;;;;;;10139765;28;20046;-73
2023/05/27 06:36:48;;;;;;;17.20;10.10;;;;;;;;;;10137413;28;20451;-73
2023/05/27 06:41:44;;;;;;;14.73;10.02;;;;;;;;;;10136679;28;20092;-73
2023/05/27 06:46:41;;;;;;;25.58;11.35;;;;;;;;;;10127849;28;20113;-73
2023/05/27 06:51:37;;;;;;;14.00;10.13;;;;;;;;;;10136651;28;20050;-73
2023/05/27 06:56:34;;;;;;;14.27;9.63;;;;;;;;;;10134325;28;20081;-73
2023/05/27 07:01:31;;;;;;;19.13;10.30;;;;;;;;;;10133063;28;20047;-73
2023/05/27 07:06:27;;;;;;;16.98;10.13;;;;;;;;;;10139596;28;20049;-74
2023/05/27 07:11:23;;;;;;;18.52;10.00;;;;;;;;;;10141074;28;20043;-73
2023/05/27 07:16:20;;;;;;;18.75;9.30;;;;;;;;;;10136802;28;20042;-73
2023/05/27 07:21:16;;;;;;;14.18;8.60;;;;;;;;;;10147780;28;20043;-73
2023/05/27 07:26:13;;;;;;;14.00;8.90;;;;;;;;;;10146513;28;20100;-73
2023/05/27 07:31:09;;;;;;;13.38;9.02;;;;;;;;;;10133253;28;20051;-73
2023/05/27 07:36:06;;;;;;;18.02;9.70;;;;;;;;;;10130692;28;20046;-72
2023/05/27 07:41:02;;;;;;;17.20;9.00;;;;;;;;;;10140012;28;20189;-73
2023/05/27 07:45:58;;;;;;;15.07;8.57;;;;;;;;;;10125756;28;20058;-73
2023/05/27 07:50:55;;;;;;;15.82;8.98;;;;;;;;;;10144586;28;20038;-72
2023/05/27 07:55:51;;;;;;;15.32;9.38;;;;;;;;;;10144147;28;20047;-73
2023/05/27 08:00:50;;;;;;;16.00;9.27;;;;;;;;;;10143036;28;20051;-72
2023/05/27 08:05:47;;;;;;;19.52;9.27;;;;;;;;;;10136402;28;20078;-72
2023/05/27 08:10:46;;;;;;;16.63;9.05;;;;;;;;;;10148253;28;20050;-73
2023/05/27 08:15:43;;;;;;;16.20;8.20;;;;;;;;;;10141674;28;20568;-74
2023/05/27 08:20:39;;;;;;;15.68;8.95;;;;;;;;;;10137360;28;20055;-73
2023/05/27 08:25:36;;;;;;;18.92;9.52;;;;;;;;;;10140088;28;20061;-73
2023/05/27 08:30:32;;;;;;;13.77;10.00;;;;;;;;;;10144892;28;20751;-72
2023/05/27 08:35:29;;;;;;;11.07;8.82;;;;;;;;;;10141777;28;20057;-72
2023/05/27 08:40:25;;;;;;;15.35;9.27;;;;;;;;;;10141469;28;20050;-72
2023/05/27 08:45:23;;;;;;;16.20;9.40;;;;;;;;;;10134831;28;20824;-72
2023/05/27 08:50:21;;;;;;;17.52;9.30;;;;;;;;;;10136350;28;20946;-73
2023/05/27 08:55:19;;;;;;;19.02;10.02;;;;;;;;;;10149206;28;20073;-72
2023/05/27 09:00:17;;;;;;;15.52;8.50;;;;;;;;;;10138369;28;20038;-72
2023/05/27 09:05:19;;;;;;;15.40;9.40;;;;;;;;;;10136432;28;20050;-72
2023/05/27 09:10:15;;;;;;;17.35;9.57;;;;;;;;;;10152874;28;20051;-73
2023/05/27 09:15:13;;;;;;;20.50;10.85;;;;;;;;;;10147151;28;20101;-73
2023/05/27 09:20:10;;;;;;;18.85;9.63;;;;;;;;;;10147719;28;20042;-72
2023/05/27 09:25:08;;;;;;;19.25;10.48;;;;;;;;;;10140831;28;20043;-73
2023/05/27 09:30:08;;;;;;;15.15;9.48;;;;;;;;;;10138072;28;20572;-72
2023/05/27 09:35:07;;;;;;;16.67;8.88;;;;;;;;;;10147620;28;20058;-72
2023/05/27 09:40:07;;;;;;;15.35;8.93;;;;;;;;;;10152133;28;20070;-73
2023/05/27 09:45:09;;;;;;;19.48;9.43;;;;;;;;;;10128236;28;20121;-72
2023/05/27 09:50:12;;;;;;;15.50;9.45;;;;;;;;;;10141731;28;20057;-73
2023/05/27 09:55:09;;;;;;;;;;;;;;;;;;10133976;28;20070;-73
2023/05/27 10:00:11;;;;;;;18.38;8.90;;;;;;;;;;10139141;28;20351;-73
2023/05/27 10:05:08;;;;;;;15.85;8.20;;;;;;;;;;10139493;28;20042;-73
2023/05/27 10:10:09;;;;;;;15.20;8.90;;;;;;;;;;10145045;28;20046;-73
2023/05/27 10:15:07;;;;;;;16.73;9.15;;;;;;;;;;10144481;28;20050;-72
2023/05/27 10:20:03;;;;;;;13.75;8.10;;;;;;;;;;10144387;28;20504;-72
2023/05/27 10:25:06;;;;;;;19.67;8.23;;;;;;;;;;10139608;28;20050;-73
2023/05/27 10:30:03;;;;;;;18.60;9.25;;;;;;;;;;10134195;28;20428;-72
2023/05/27 10:34:59;;;;;;;12.90;7.72;;;;;;;;;;10145959;28;20062;-73
2023/05/27 10:39:56;;;;;;;9.98;7.53;;;;;;;;;;10139809;28;20046;-73
2023/05/27 10:45:07;;;;;;;18.10;8.02;;;;;;;;;;10138802;28;20104;-74
2023/05/27 10:50:13;;;;;;;13.18;8.27;;;;;;;;;;10136121;28;20065;-73
2023/05/27 10:55:10;;;;;;;18.30;9.18;;;;;;;;;;10147178;28;20077;-73
2023/05/27 11:00:08;;;;;;;14.55;8.75;;;;;;;;;;10139531;28;20410;-72
2023/05/27 11:05:08;;;;;;;16.60;8.60;;;;;;;;;;10146867;28;20046;-73
2023/05/27 11:10:06;;;;;;;15.98;8.63;;;;;;;;;;10145981;28;20070;-73
2023/05/27 11:15:03;;;;;;;11.13;8.27;;;;;;;;;;10144513;28;20448;-72
2023/05/27 11:20:00;;;;;;;14.02;9.07;;;;;;;;;;10133820;28;20046;-72
2023/05/27 11:25:01;;;;;;;15.02;8.98;;;;;;;;;;10142610;28;20862;-73
2023/05/27 11:29:57;;;;;;;13.68;8.70;;;;;;;;;;10145702;28;20707;-73
2023/05/27 11:34:54;;;;;;;14.30;8.82;;;;;;;;;;10141985;28;20053;-73
2023/05/27 11:39:52;;;;;;;12.80;8.68;;;;;;;;;;10137367;28;20042;-72
2023/05/27 11:44:54;;;;;;;12.68;8.57;;;;;;;;;;10136378;28;20059;-72
2023/05/27 11:49:52;;;;;;;14.30;8.43;;;;;;;;;;10125638;28;20053;-73
2023/05/27 11:54:49;;;;;;;12.95;8.98;;;;;;;;;;10141697;28;20059;-73
2023/05/27 11:59:53;;;;;;;14.68;8.15;;;;;;;;;;10139680;28;20931;-73
2023/05/27 12:04:49;;;;;;;15.65;8.45;;;;;;;;;;10130249;28;20042;-73
2023/05/27 12:09:45;;;;;;;12.07;8.25;;;;;;;;;;10135914;28;20078;-73
2023/05/27 12:14:42;;;;;;;13.27;8.63;;;;;;;;;;10139655;28;20065;-73
2023/05/27 12:19:38;;;;;;;10.98;8.15;;;;;;;;;;10135223;28;20507;-72
2023/05/27 12:24:34;;;;;;;17.58;10.07;;;;;;;;;;10153840;28;20038;-72
2023/05/27 12:29:34;;;;;;;11.68;7.78;;;;;;;;;;10147173;28;20050;-72
2023/05/27 12:34:30;;;;;;;12.88;8.65;;;;;;;;;;10145144;28;20070;-74
2023/05/27 12:39:26;;;;;;;13.85;8.23;;;;;;;;;;10147727;28;20039;-73
2023/05/27 12:44:22;;;;;;;15.45;8.02;;;;;;;;;;10144661;28;20065;-72
2023/05/27 12:49:22;;;;;;;12.75;8.02;;;;;;;;;;10135071;28;20058;-73
2023/05/27 12:54:18;;;;;;;16.75;9.13;;;;;;;;;;10133089;28;20125;-72
2023/05/27 12:59:14;;;;;;;13.65;7.95;;;;;;;;;;10136002;28;20416;-72
2023/05/27 13:04:11;;;;;;;12.35;7.95;;;;;;;;;;10145826;28;20604;-73
2023/05/27 13:09:07;;;;;;;14.65;8.57;;;;;;;;;;10140112;28;20054;-72
2023/05/27 13:14:04;;;;;;;16.35;8.27;;;;;;;;;;10145302;28;20556;-73
2023/05/27 13:19:00;;;;;;;13.60;8.82;;;;;;;;;;10142639;28;20508;-72
2023/05/27 13:23:57;;;;;;;14.38;7.50;;;;;;;;;;10152738;28;20050;-72
2023/05/27 13:28:53;;;;;;;12.57;7.65;;;;;;;;;;10145861;28;20053;-72
2023/05/27 13:33:49;;;;;;;13.77;7.78;;;;;;;;;;10133534;28;20703;-72
2023/05/27 13:38:46;;;;;;;12.48;7.85;;;;;;;;;;10138296;28;20559;-73
2023/05/27 13:43:45;;;;;;;15.30;7.78;;;;;;;;;;10146831;28;20431;-73
2023/05/27 13:48:41;;;;;;;11.35;7.57;;;;;;;;;;10150134;28;20145;-73
2023/05/27 13:53:38;;;;;;;14.82;8.40;;;;;;;;;;10149135;28;20084;-73
2023/05/27 13:58:34;;;;;;;15.90;8.65;;;;;;;;;;10140397;28;20049;-73
2023/05/27 14:03:33;;;;;;;12.57;8.30;;;;;;;;;;10145719;28;20042;-73
2023/05/27 14:08:29;;;;;;;9.55;7.78;;;;;;;;;;10150821;28;20108;-73
2023/05/27 14:13:26;;;;;;;13.02;8.00;;;;;;;;;;10149303;28;20050;-73
2023/05/27 14:18:22;;;;;;;13.38;8.48;;;;;;;;;;10141093;28;20049;-73
2023/05/27 14:23:19;;;;;;;11.68;8.63;;;;;;;;;;10140813;28;20043;-72
2023/05/27 14:28:15;;;;;;;12.30;8.27;;;;;;;;;;10133790;28;20398;-73
2023/05/27 14:33:11;;;;;;;11.48;8.32;;;;;;;;;;10135671;28;20047;-72
2023/05/27 14:38:08;;;;;;;13.65;8.88;;;;;;;;;;10136044;28;20046;-72
2023/05/27 14:43:04;;;;;;;11.75;7.70;;;;;;;;;;10150061;28;20046;-72
2023/05/27 14:48:01;;;;;;;13.85;8.23;;;;;;;;;;10134048;28;20270;-73
2023/05/27 14:52:57;;;;;;;14.77;8.18;;;;;;;;;;10144810;28;20525;-72
2023/05/27 14:57:54;;;;;;;11.27;7.70;;;;;;;;;;10130321;28;20054;-72
2023/05/27 15:02:50;;;;;;;11.40;7.88;;;;;;;;;;10128079;28;20066;-72
2023/05/27 15:07:47;;;;;;;12.88;8.15;;;;;;;;;;10136163;28;20505;-73
2023/05/27 15:12:46;;;;;;;8.80;7.00;;;;;;;;;;10137368;28;20532;-72
2023/05/27 15:17:44;;;;;;;11.35;7.78;;;;;;;;;;10138797;28;20047;-72
2023/05/27 15:22:40;;;;;;;12.32;8.05;;;;;;;;;;10129198;28;20085;-73
2023/05/27 15:27:37;;;;;;;11.35;7.38;;;;;;;;;;10137148;28;20054;-73
2023/05/27 15:32:33;;;;;;;10.65;8.35;;;;;;;;;;10127955;28;20109;-73
2023/05/27 15:37:30;;;;;;;11.68;7.93;;;;;;;;;;10143722;28;20760;-72
2023/05/27 15:42:26;;;;;;;9.93;8.13;;;;;;;;;;10131668;28;20088;-73
2023/05/27 15:47:23;;;;;;;8.73;7.80;;;;;;;;;;10148587;28;20170;-72
2023/05/27 15:52:19;;;;;;;16.63;8.70;;;;;;;;;;10141742;28;20713;-72
2023/05/27 15:57:15;;;;;;;10.23;7.70;;;;;;;;;;10137428;28;20544;-73
2023/05/27 16:02:11;;;;;;;10.48;8.50;;;;;;;;;;10141578;28;20120;-72
2023/05/27 16:07:08;;;;;;;9.05;8.13;;;;;;;;;;10146709;28;20532;-73
2023/05/27 16:12:05;;;;;;;13.32;8.95;;;;;;;;;;10130961;28;20149;-73
2023/05/27 16:17:02;;;;;;;11.98;9.02;;;;;;;;;;10130068;28;20046;-73
2023/05/27 16:21:58;;;;;;;12.27;8.05;;;;;;;;;;10125766;28;20117;-73
2023/05/27 16:26:55;;;;;;;14.18;8.75;;;;;;;;;;10124776;28;20500;-73
2023/05/27 16:31:52;;;;;;;10.95;8.50;;;;;;;;;;10124263;28;20051;-72
2023/05/27 16:36:51;;;;;;;11.68;9.00;;;;;;;;;;10125365;28;20075;-73
2023/05/27 16:41:47;;;;;;;11.27;9.05;;;;;;;;;;10125477;28;20430;-73
2023/05/27 16:46:44;;;;;;;12.63;8.70;;;;;;;;;;10125904;28;20042;-72
2023/05/27 16:51:40;;;;;;;9.27;7.72;;;;;;;;;;10133249;28;20050;-72
2023/05/27 16:56:37;;;;;;;11.48;7.82;;;;;;;;;;10141406;28;20472;-72
2023/05/27 17:01:33;;;;;;;14.30;7.53;;;;;;;;;;10137904;28;20071;-73
2023/05/27 17:06:29;;;;;;;11.07;7.97;;;;;;;;;;10149271;28;20516;-69
2023/05/27 17:11:26;;;;;;;13.00;7.38;;;;;;;;;;10139294;28;20097;-68
2023/05/27 17:16:22;;;;;;;15.30;7.78;;;;;;;;;;10143034;28;20493;-68
2023/05/27 17:21:19;;;;;;;17.63;7.32;;;;;;;;;;10132003;28;20397;-68
2023/05/27 17:26:15;;;;;;;11.23;7.20;;;;;;;;;;10141509;28;20511;-69
2023/05/27 17:31:11;;;;;;;9.90;6.88;;;;;;;;;;10134586;28;20046;-69
2023/05/27 17:36:08;;;;;;;11.85;7.15;;;;;;;;;;10143705;28;20038;-69
2023/05/27 17:41:06;;;;;;;11.48;7.25;;;;;;;;;;10143197;28;20386;-68
2023/05/27 17:46:05;;;;;;;13.83;7.60;;;;;;;;;;10141817;28;20050;-69
2023/05/27 17:51:01;;;;;;;10.10;6.90;;;;;;;;;;10142261;28;20089;-69
2023/05/27 17:55:58;;;;;;;10.05;6.78;;;;;;;;;;10146366;28;20042;-69
2023/05/27 18:00:59;;;;;;;10.10;7.05;;;;;;;;;;10146594;28;20524;-69
2023/05/27 18:05:57;;;;;;;9.98;6.97;;;;;;;;;;10148390;28;20054;-69
2023/05/27 18:10:54;;;;;;;9.43;6.72;;;;;;;;;;10149357;28;20148;-69
2023/05/27 18:15:55;;;;;;;9.07;6.57;;;;;;;;;;10145719;28;20469;-69
2023/05/27 18:20:53;;;;;;;12.13;6.32;;;;;;;;;;10136683;28;20051;-69
2023/05/27 18:25:50;;;;;;;11.02;6.13;;;;;;;;;;10133243;28;21971;-69
2023/05/27 18:30:46;;;;;;;12.00;6.30;;;;;;;;;;10148084;28;20042;-69
2023/05/27 18:35:43;;;;;;;9.20;6.05;;;;;;;;;;10134146;28;20055;-69
2023/05/27 18:40:39;;;;;;;9.65;6.05;;;;;;;;;;10136083;28;20460;-69
2023/05/27 18:45:48;;;;;;;11.13;6.38;;;;;;;;;;10145742;28;20051;-69
2023/05/27 18:50:46;;;;;;;12.57;6.78;;;;;;;;;;10144924;28;20053;-70
2023/05/27 18:55:42;;;;;;;9.38;7.20;;;;;;;;;;10141741;28;20053;-69
2023/05/27 19:00:42;;;;;;;10.45;7.07;;;;;;;;;;10144647;28;20064;-69
2023/05/27 19:05:38;;;;;;;10.05;6.35;;;;;;;;;;10145556;28;20699;-67
2023/05/27 19:10:34;;;;;;;13.10;7.72;;;;;;;;;;10134232;28;20046;-69
2023/05/27 19:15:31;;;;;;;11.43;7.47;;;;;;;;;;10141815;28;20406;-69
2023/05/27 19:20:27;;;;;;;10.27;7.13;;;;;;;;;;10132147;28;20093;-67
2023/05/27 19:25:24;;;;;;;7.85;6.97;;;;;;;;;;10142999;28;20126;-69
2023/05/27 19:30:20;;;;;;;9.23;6.85;;;;;;;;;;10131125;28;20433;-68
2023/05/27 19:35:18;;;;;;;11.38;6.40;;;;;;;;;;10121183;28;20481;-69
2023/05/27 19:40:14;;;;;;;12.38;7.28;;;;;;;;;;10131662;28;20050;-69
2023/05/27 19:45:10;;;;;;;11.45;6.28;;;;;;;;;;10125320;28;20042;-68
2023/05/27 19:50:07;;;;;;;10.80;6.50;;;;;;;;;;10132299;28;20051;-69
2023/05/27 19:55:04;;;;;;;10.25;6.43;;;;;;;;;;10122538;28;20117;-69
2023/05/27 20:00:00;;;;;;;12.48;6.93;;;;;;;;;;10122764;28;20046;-69
2023/05/27 20:04:56;;;;;;;10.18;7.60;;;;;;;;;;10136852;28;20089;-69
2023/05/27 20:09:54;;;;;;;13.45;8.88;;;;;;;;;;10132903;28;20058;-69
2023/05/27 20:14:50;;;;;;;13.20;8.48;;;;;;;;;;10143714;28;20128;-69
2023/05/27 20:19:46;;;;;;;13.95;8.30;;;;;;;;;;10127298;28;20042;-68
2023/05/27 20:24:43;;;;;;;13.93;7.97;;;;;;;;;;10136817;28;20042;-68
2023/05/27 20:29:39;;;;;;;8.13;6.82;;;;;;;;;;10132819;28;20105;-68
2023/05/27 20:34:35;;;;;;;11.73;7.30;;;;;;;;;;10134057;28;20457;-68
2023/05/27 20:39:32;;;;;;;11.68;6.90;;;;;;;;;;10134751;28;20054;-68
2023/05/27 20:44:30;;;;;;;9.55;7.28;;;;;;;;;;10132216;28;20046;-68
2023/05/27 20:49:29;;;;;;;12.45;7.20;;;;;;;;;;10138338;28;20043;-68
2023/05/27 20:54:25;;;;;;;11.32;7.85;;;;;;;;;;10149567;28;20102;-69
2023/05/27 20:59:22;;;;;;;14.32;7.32;;;;;;;;;;10147752;28;20681;-68
2023/05/27 21:04:18;;;;;;;15.38;7.25;;;;;;;;;;10142926;28;20575;-68
2023/05/27 21:09:14;;;;;;;13.73;7.35;;;;;;;;;;10142057;28;20054;-68
2023/05/27 21:14:11;;;;;;;12.30;7.65;;;;;;;;;;10140976;28;20058;-68
2023/05/27 21:19:07;;;;;;;15.20;7.88;;;;;;;;;;10143261;28;20038;-68
2023/05/27 21:24:04;;;;;;;12.93;6.78;;;;;;;;;;10150493;28;20092;-68
2023/05/27 21:29:00;;;;;;;11.77;7.65;;;;;;;;;;10140676;28;20052;-68
2023/05/27 21:33:57;;;;;;;18.92;7.90;;;;;;;;;;10141172;28;20113;-68
2023/05/27 21:38:53;;;;;;;16.15;7.65;;;;;;;;;;10139225;28;20050;-68
2023/05/27 21:43:49;;;;;;;14.98;8.68;;;;;;;;;;10149950;28;20038;-68
2023/05/27 21:48:47;;;;;;;11.02;7.20;;;;;;;;;;10123601;28;20066;-68
2023/05/27 21:53:43;;;;;;;12.45;8.38;;;;;;;;;;10135736;28;20615;-68
2023/05/27 21:58:40;;;;;;;19.38;9.00;;;;;;;;;;10152460;28;20448;-68
2023/05/27 22:03:39;;;;;;;13.77;7.93;;;;;;;;;;10137853;28;20039;-68
2023/05/27 22:08:36;;;;;;;12.88;8.27;;;;;;;;;;10138896;28;20432;-68
2023/05/27 22:13:32;;;;;;;12.38;8.15;;;;;;;;;;10135012;28;20125;-68
2023/05/27 22:18:28;;;;;;;14.45;8.70;;;;;;;;;;10138624;28;20038;-68
2023/05/27 22:23:25;;;;;;;16.90;10.05;;;;;;;;;;10147321;28;20121;-68
2023/05/27 22:28:21;;;;;;;13.68;8.80;;;;;;;;;;10143541;28;20054;-68
2023/05/27 22:33:17;;;;;;;13.93;8.57;;;;;;;;;;10140385;28;20043;-68
2023/05/27 22:38:14;;;;;;;17.50;8.60;;;;;;;;;;10141851;28;20104;-68
2023/05/27 22:43:10;;;;;;;15.90;9.52;;;;;;;;;;10145029;28;20051;-68
2023/05/27 22:48:06;;;;;;;13.75;9.60;;;;;;;;;;10135542;28;20053;-68
2023/05/27 22:53:03;;;;;;;19.48;10.27;;;;;;;;;;10139395;28;20460;-68
2023/05/27 22:57:59;;;;;;;13.50;10.13;;;;;;;;;;10139982;28;20501;-68
2023/05/27 23:02:55;;;;;;;14.63;9.77;;;;;;;;;;10141061;28;20468;-68
2023/05/27 23:07:55;;;;;;;12.70;10.45;;;;;;;;;;10129649;28;20046;-68
2023/05/27 23:12:51;;;;;;;15.88;10.30;;;;;;;;;;10147206;28;20575;-68
2023/05/27 23:17:47;;;;;;;15.27;10.43;;;;;;;;;;10135533;28;20496;-68
2023/05/27 23:22:44;;;;;;;17.15;11.10;;;;;;;;;;10132859;28;20098;-68
2023/05/27 23:27:46;;;;;;;18.67;11.57;;;;;;;;;;10132601;28;20097;-68
2023/05/27 23:32:43;;;;;;;;;;;;;;;;;;10128442;28;20402;-67
2023/05/27 23:37:39;;;;;;;14.82;10.68;;;;;;;;;;10142379;28;19956;-68
2023/05/27 23:42:37;;;;;;;19.45;10.45;;;;;;;;;;10143389;28;20137;-68
2023/05/27 23:47:33;;;;;;;15.70;11.25;;;;;;;;;;10139172;28;20076;-68
2023/05/27 23:52:29;;;;;;;19.98;12.35;;;;;;;;;;10149887;28;20411;-68
2023/05/27 23:57:29;;;;;;;16.95;11.25;;;;;;;;;;10157256;28;20046;-67
